sensor_id;sensor_type;location;lat;lon;timestamp;pressure;altitude;pressure_sealevel;temperature;humidity
65384;BME280;51986;52.788;41.368;2023-04-21T00:01:57;98945.72;;;12.68;24.82
65384;BME280;51986;52.788;41.368;2023-04-21T00:04:25;98961.53;;;13.04;24.77
65384;BME280;51986;52.788;41.368;2023-04-21T00:06:52;98967.31;;;12.83;24.90
65384;BME280;51986;52.788;41.368;2023-04-21T00:09:20;98948.50;;;12.77;25.66
65384;BME280;51986;52.788;41.368;2023-04-21T00:11:47;98944.66;;;12.98;24.92
65384;BME280;51986;52.788;41.368;2023-04-21T00:14:14;98955.38;;;12.91;24.45
65384;BME280;51986;52.788;41.368;2023-04-21T00:16:41;98933.47;;;13.07;24.69
65384;BME280;51986;52.788;41.368;2023-04-21T00:19:08;98927.56;;;13.16;24.91
65384;BME280;51986;52.788;41.368;2023-04-21T00:21:35;98946.09;;;13.16;24.22
65384;BME280;51986;52.788;41.368;2023-04-21T00:24:02;98942.91;;;13.08;24.77
65384;BME280;51986;52.788;41.368;2023-04-21T00:26:29;98933.88;;;12.56;25.57
65384;BME280;51986;52.788;41.368;2023-04-21T00:28:56;98929.97;;;12.77;25.40
65384;BME280;51986;52.788;41.368;2023-04-21T00:31:23;98941.81;;;12.89;24.20
65384;BME280;51986;52.788;41.368;2023-04-21T00:33:50;98947.78;;;12.93;24.64
65384;BME280;51986;52.788;41.368;2023-04-21T00:36:17;98946.13;;;12.99;24.71
65384;BME280;51986;52.788;41.368;2023-04-21T00:38:46;98925.44;;;12.94;24.71
65384;BME280;51986;52.788;41.368;2023-04-21T00:41:13;98934.38;;;12.68;25.10
65384;BME280;51986;52.788;41.368;2023-04-21T00:44:06;98917.75;;;12.83;24.90
65384;BME280;51986;52.788;41.368;2023-04-21T00:46:34;98919.47;;;12.90;24.46
65384;BME280;51986;52.788;41.368;2023-04-21T00:49:05;98931.72;;;13.00;24.89
65384;BME280;51986;52.788;41.368;2023-04-21T00:51:35;98915.00;;;12.22;26.00
65384;BME280;51986;52.788;41.368;2023-04-21T00:54:06;98921.41;;;12.41;25.86
65384;BME280;51986;52.788;41.368;2023-04-21T00:56:34;98906.00;;;12.52;25.79
65384;BME280;51986;52.788;41.368;2023-04-21T00:59:02;98914.28;;;12.38;25.33
65384;BME280;51986;52.788;41.368;2023-04-21T01:01:31;98902.94;;;12.21;25.93
65384;BME280;51986;52.788;41.368;2023-04-21T01:03:59;98902.22;;;12.20;25.68
65384;BME280;51986;52.788;41.368;2023-04-21T01:06:32;98910.22;;;12.33;25.99
65384;BME280;51986;52.788;41.368;2023-04-21T01:08:59;98915.94;;;12.48;26.07
65384;BME280;51986;52.788;41.368;2023-04-21T01:11:26;98911.50;;;12.45;26.78
65384;BME280;51986;52.788;41.368;2023-04-21T01:13:54;98899.31;;;12.47;26.32
65384;BME280;51986;52.788;41.368;2023-04-21T01:16:22;98888.50;;;12.42;26.27
65384;BME280;51986;52.788;41.368;2023-04-21T01:18:50;98895.84;;;12.34;25.55
65384;BME280;51986;52.788;41.368;2023-04-21T01:21:17;98891.63;;;12.53;25.71
65384;BME280;51986;52.788;41.368;2023-04-21T01:23:44;98908.50;;;12.43;24.82
65384;BME280;51986;52.788;41.368;2023-04-21T01:26:11;98912.78;;;12.53;24.95
65384;BME280;51986;52.788;41.368;2023-04-21T01:28:38;98907.28;;;12.64;25.31
65384;BME280;51986;52.788;41.368;2023-04-21T01:31:05;98874.69;;;12.34;25.56
65384;BME280;51986;52.788;41.368;2023-04-21T01:33:32;98905.19;;;12.55;25.63
65384;BME280;51986;52.788;41.368;2023-04-21T01:35:59;98900.72;;;12.35;26.79
65384;BME280;51986;52.788;41.368;2023-04-21T01:38:26;98894.09;;;12.44;26.68
65384;BME280;51986;52.788;41.368;2023-04-21T01:40:53;98896.19;;;12.52;27.12
65384;BME280;51986;52.788;41.368;2023-04-21T01:43:23;98894.09;;;12.27;25.91
65384;BME280;51986;52.788;41.368;2023-04-21T01:45:51;98900.47;;;12.30;26.55
65384;BME280;51986;52.788;41.368;2023-04-21T01:48:18;98874.09;;;12.43;25.41
65384;BME280;51986;52.788;41.368;2023-04-21T01:50:45;98907.31;;;12.27;25.52
65384;BME280;51986;52.788;41.368;2023-04-21T01:53:12;98886.84;;;12.31;26.34
65384;BME280;51986;52.788;41.368;2023-04-21T01:55:40;98886.41;;;12.17;25.91
65384;BME280;51986;52.788;41.368;2023-04-21T01:58:08;98885.88;;;12.05;25.95
65384;BME280;51986;52.788;41.368;2023-04-21T02:00:35;98890.91;;;12.00;26.47
65384;BME280;51986;52.788;41.368;2023-04-21T02:03:03;98854.81;;;11.93;26.41
65384;BME280;51986;52.788;41.368;2023-04-21T02:05:30;98885.72;;;11.96;26.30
65384;BME280;51986;52.788;41.368;2023-04-21T02:07:57;98857.53;;;11.90;25.85
65384;BME280;51986;52.788;41.368;2023-04-21T02:10:24;98884.75;;;12.06;26.06
65384;BME280;51986;52.788;41.368;2023-04-21T02:12:51;98889.56;;;12.12;26.06
65384;BME280;51986;52.788;41.368;2023-04-21T02:15:18;98894.41;;;12.13;26.18
65384;BME280;51986;52.788;41.368;2023-04-21T02:17:45;98876.34;;;12.12;26.32
65384;BME280;51986;52.788;41.368;2023-04-21T02:20:12;98885.25;;;12.18;26.53
65384;BME280;51986;52.788;41.368;2023-04-21T02:22:39;98890.22;;;12.16;27.03
65384;BME280;51986;52.788;41.368;2023-04-21T02:25:06;98886.59;;;12.26;26.36
65384;BME280;51986;52.788;41.368;2023-04-21T02:27:33;98874.75;;;11.98;26.91
65384;BME280;51986;52.788;41.368;2023-04-21T02:30:00;98895.28;;;11.90;27.29
65384;BME280;51986;52.788;41.368;2023-04-21T02:32:27;98869.63;;;12.07;26.59
65384;BME280;51986;52.788;41.368;2023-04-21T02:34:54;98868.09;;;11.90;26.76
65384;BME280;51986;52.788;41.368;2023-04-21T02:37:22;98888.50;;;11.69;26.81
65384;BME280;51986;52.788;41.368;2023-04-21T02:39:52;98884.75;;;12.06;26.81
65384;BME280;51986;52.788;41.368;2023-04-21T02:42:18;98880.97;;;12.24;26.23
65384;BME280;51986;52.788;41.368;2023-04-21T02:44:47;98877.16;;;12.25;25.61
65384;BME280;51986;52.788;41.368;2023-04-21T02:47:14;98873.94;;;12.33;26.32
65384;BME280;51986;52.788;41.368;2023-04-21T02:49:42;98887.81;;;12.38;26.26
65384;BME280;51986;52.788;41.368;2023-04-21T02:52:11;98873.38;;;12.26;26.83
65384;BME280;51986;52.788;41.368;2023-04-21T02:54:37;98879.78;;;12.25;26.87
65384;BME280;51986;52.788;41.368;2023-04-21T02:57:04;98870.50;;;12.00;26.83
65384;BME280;51986;52.788;41.368;2023-04-21T02:59:32;98880.09;;;12.10;26.53
65384;BME280;51986;52.788;41.368;2023-04-21T03:01:59;98879.84;;;12.05;26.38
65384;BME280;51986;52.788;41.368;2023-04-21T03:04:26;98866.25;;;12.06;26.55
65384;BME280;51986;52.788;41.368;2023-04-21T03:06:53;98853.22;;;12.16;27.21
65384;BME280;51986;52.788;41.368;2023-04-21T03:09:22;98879.22;;;12.17;26.80
65384;BME280;51986;52.788;41.368;2023-04-21T03:11:49;98880.72;;;12.34;26.41
65384;BME280;51986;52.788;41.368;2023-04-21T03:14:17;98880.47;;;12.45;26.56
65384;BME280;51986;52.788;41.368;2023-04-21T03:16:44;98881.69;;;12.24;27.06
65384;BME280;51986;52.788;41.368;2023-04-21T03:19:11;98876.91;;;12.52;26.62
65384;BME280;51986;52.788;41.368;2023-04-21T03:21:39;98864.19;;;12.47;26.60
65384;BME280;51986;52.788;41.368;2023-04-21T03:24:06;98872.69;;;12.71;27.16
65384;BME280;51986;52.788;41.368;2023-04-21T03:26:34;98862.53;;;12.53;27.00
65384;BME280;51986;52.788;41.368;2023-04-21T03:29:01;98878.56;;;12.62;27.57
65384;BME280;51986;52.788;41.368;2023-04-21T03:31:29;98885.53;;;12.56;27.07
65384;BME280;51986;52.788;41.368;2023-04-21T03:33:56;98886.34;;;12.69;26.80
65384;BME280;51986;52.788;41.368;2023-04-21T03:36:23;98855.50;;;12.46;26.97
65384;BME280;51986;52.788;41.368;2023-04-21T03:38:50;98880.72;;;12.67;26.95
65384;BME280;51986;52.788;41.368;2023-04-21T03:41:17;98896.00;;;12.92;26.81
65384;BME280;51986;52.788;41.368;2023-04-21T03:43:44;98891.06;;;12.45;27.98
65384;BME280;51986;52.788;41.368;2023-04-21T03:46:18;98877.09;;;12.45;28.26
65384;BME280;51986;52.788;41.368;2023-04-21T03:51:49;98876.31;;;12.93;27.42
65384;BME280;51986;52.788;41.368;2023-04-21T03:54:16;98885.56;;;13.01;27.79
65384;BME280;51986;52.788;41.368;2023-04-21T03:56:43;98880.59;;;13.03;27.78
65384;BME280;51986;52.788;41.368;2023-04-21T03:59:10;98886.34;;;13.15;27.43
65384;BME280;51986;52.788;41.368;2023-04-21T04:01:38;98886.06;;;13.25;26.87
65384;BME280;51986;52.788;41.368;2023-04-21T04:04:06;98898.03;;;13.46;27.06
65384;BME280;51986;52.788;41.368;2023-04-21T04:06:33;98903.44;;;13.55;26.82
65384;BME280;51986;52.788;41.368;2023-04-21T04:09:01;98872.66;;;13.32;27.51
65384;BME280;51986;52.788;41.368;2023-04-21T04:11:28;98881.31;;;13.62;27.29
65384;BME280;51986;52.788;41.368;2023-04-21T04:13:55;98893.19;;;13.70;26.80
65384;BME280;51986;52.788;41.368;2023-04-21T04:16:22;98877.47;;;13.63;26.82
65384;BME280;51986;52.788;41.368;2023-04-21T04:18:49;98887.56;;;13.55;27.01
65384;BME280;51986;52.788;41.368;2023-04-21T04:21:16;98893.59;;;13.56;27.25
65384;BME280;51986;52.788;41.368;2023-04-21T04:23:43;98888.00;;;13.67;27.57
65384;BME280;51986;52.788;41.368;2023-04-21T04:26:10;98899.53;;;13.73;27.80
65384;BME280;51986;52.788;41.368;2023-04-21T04:28:37;98909.75;;;13.74;27.84
65384;BME280;51986;52.788;41.368;2023-04-21T04:31:04;98877.19;;;13.74;27.84
65384;BME280;51986;52.788;41.368;2023-04-21T04:33:31;98899.47;;;13.89;27.60
65384;BME280;51986;52.788;41.368;2023-04-21T04:35:58;98916.03;;;13.93;27.81
65384;BME280;51986;52.788;41.368;2023-04-21T04:38:25;98921.53;;;14.11;27.68
65384;BME280;51986;52.788;41.368;2023-04-21T04:40:56;98875.97;;;14.17;28.18
65384;BME280;51986;52.788;41.368;2023-04-21T04:43:23;98917.97;;;14.31;27.75
65384;BME280;51986;52.788;41.368;2023-04-21T04:45:50;98902.16;;;14.14;28.17
65384;BME280;51986;52.788;41.368;2023-04-21T04:48:17;98912.84;;;14.11;27.59
65384;BME280;51986;52.788;41.368;2023-04-21T04:50:45;98911.69;;;13.99;27.81
65384;BME280;51986;52.788;41.368;2023-04-21T04:53:12;98922.63;;;14.14;27.95
65384;BME280;51986;52.788;41.368;2023-04-21T04:55:39;98916.59;;;14.13;27.69
65384;BME280;51986;52.788;41.368;2023-04-21T04:58:06;98892.34;;;13.86;28.24
65384;BME280;51986;52.788;41.368;2023-04-21T05:00:33;98919.19;;;13.75;28.74
65384;BME280;51986;52.788;41.368;2023-04-21T05:03:00;98939.59;;;13.62;29.39
65384;BME280;51986;52.788;41.368;2023-04-21T05:05:27;98901.78;;;13.32;29.82
65384;BME280;51986;52.788;41.368;2023-04-21T05:07:56;98944.38;;;13.67;30.56
65384;BME280;51986;52.788;41.368;2023-04-21T05:10:22;98955.50;;;13.33;31.38
65384;BME280;51986;52.788;41.368;2023-04-21T05:12:49;98943.78;;;13.18;33.19
65384;BME280;51986;52.788;41.368;2023-04-21T05:15:16;98937.34;;;13.19;34.41
65384;BME280;51986;52.788;41.368;2023-04-21T05:17:43;98885.69;;;12.65;36.81
65384;BME280;51986;52.788;41.368;2023-04-21T05:20:29;98946.56;;;12.29;40.24
65384;BME280;51986;52.788;41.368;2023-04-21T05:22:56;98953.00;;;12.12;41.23
65384;BME280;51986;52.788;41.368;2023-04-21T05:25:23;98952.84;;;12.19;41.18
65384;BME280;51986;52.788;41.368;2023-04-21T05:27:50;98959.88;;;11.89;42.53
65384;BME280;51986;52.788;41.368;2023-04-21T05:30:17;98951.94;;;11.89;42.49
65384;BME280;51986;52.788;41.368;2023-04-21T05:32:44;98985.97;;;11.87;42.82
65384;BME280;51986;52.788;41.368;2023-04-21T05:35:11;98982.66;;;11.83;43.39
65384;BME280;51986;52.788;41.368;2023-04-21T05:37:38;98959.09;;;11.69;44.61
65384;BME280;51986;52.788;41.368;2023-04-21T05:42:50;98969.78;;;11.62;44.95
65384;BME280;51986;52.788;41.368;2023-04-21T05:45:17;98954.78;;;11.78;44.36
65384;BME280;51986;52.788;41.368;2023-04-21T05:47:44;98971.44;;;11.95;44.30
65384;BME280;51986;52.788;41.368;2023-04-21T05:50:11;98982.97;;;11.85;43.95
65384;BME280;51986;52.788;41.368;2023-04-21T05:52:39;98977.69;;;11.85;44.57
65384;BME280;51986;52.788;41.368;2023-04-21T05:55:07;98980.22;;;11.72;44.94
65384;BME280;51986;52.788;41.368;2023-04-21T05:57:34;98980.69;;;11.87;44.84
65384;BME280;51986;52.788;41.368;2023-04-21T06:00:00;98950.28;;;11.55;44.86
65384;BME280;51986;52.788;41.368;2023-04-21T06:02:30;99003.63;;;11.90;45.13
65384;BME280;51986;52.788;41.368;2023-04-21T06:04:57;98986.16;;;11.76;45.21
65384;BME280;51986;52.788;41.368;2023-04-21T06:10:12;98982.44;;;11.74;45.73
65384;BME280;51986;52.788;41.368;2023-04-21T06:12:42;98982.97;;;11.85;46.22
65384;BME280;51986;52.788;41.368;2023-04-21T06:15:10;98991.84;;;11.95;44.60
65384;BME280;51986;52.788;41.368;2023-04-21T06:17:37;98981.69;;;11.73;45.38
65384;BME280;51986;52.788;41.368;2023-04-21T06:20:06;99000.81;;;11.57;45.57
65384;BME280;51986;52.788;41.368;2023-04-21T06:22:33;99015.53;;;11.58;45.94
65384;BME280;51986;52.788;41.368;2023-04-21T06:25:04;99000.72;;;11.84;45.45
65384;BME280;51986;52.788;41.368;2023-04-21T06:27:31;98998.56;;;11.99;45.52
65384;BME280;51986;52.788;41.368;2023-04-21T06:29:58;99010.63;;;12.00;45.32
65384;BME280;51986;52.788;41.368;2023-04-21T06:32:25;99018.59;;;11.77;45.97
65384;BME280;51986;52.788;41.368;2023-04-21T06:34:52;99011.34;;;11.81;45.72
65384;BME280;51986;52.788;41.368;2023-04-21T06:37:19;99012.03;;;11.85;45.67
65384;BME280;51986;52.788;41.368;2023-04-21T06:39:46;99004.47;;;11.87;45.90
65384;BME280;51986;52.788;41.368;2023-04-21T06:42:13;99003.44;;;12.21;44.66
65384;BME280;51986;52.788;41.368;2023-04-21T06:44:42;99006.91;;;12.34;44.62
65384;BME280;51986;52.788;41.368;2023-04-21T06:47:09;98996.53;;;12.43;43.81
65384;BME280;51986;52.788;41.368;2023-04-21T06:49:38;99022.69;;;12.57;43.81
65384;BME280;51986;52.788;41.368;2023-04-21T06:52:08;99000.44;;;12.55;42.94
65384;BME280;51986;52.788;41.368;2023-04-21T06:54:34;99005.44;;;12.33;43.73
65384;BME280;51986;52.788;41.368;2023-04-21T06:57:01;99013.13;;;12.44;43.01
65384;BME280;51986;52.788;41.368;2023-04-21T06:59:32;99015.66;;;12.51;43.22
65384;BME280;51986;52.788;41.368;2023-04-21T07:01:59;99010.28;;;12.54;43.50
65384;BME280;51986;52.788;41.368;2023-04-21T07:04:26;99000.22;;;12.66;42.73
65384;BME280;51986;52.788;41.368;2023-04-21T07:06:53;98986.78;;;12.56;42.90
65384;BME280;51986;52.788;41.368;2023-04-21T07:09:23;98989.25;;;12.47;44.01
65384;BME280;51986;52.788;41.368;2023-04-21T07:11:50;98993.50;;;12.61;42.51
65384;BME280;51986;52.788;41.368;2023-04-21T07:14:17;98997.25;;;12.64;42.53
65384;BME280;51986;52.788;41.368;2023-04-21T07:19:30;99002.97;;;12.42;42.98
65384;BME280;51986;52.788;41.368;2023-04-21T07:21:57;99025.31;;;12.57;42.59
65384;BME280;51986;52.788;41.368;2023-04-21T07:24:33;98982.31;;;12.53;42.31
65384;BME280;51986;52.788;41.368;2023-04-21T07:27:00;98982.13;;;12.28;43.12
65384;BME280;51986;52.788;41.368;2023-04-21T07:29:27;99018.63;;;12.53;42.57
65384;BME280;51986;52.788;41.368;2023-04-21T07:31:55;98987.78;;;12.46;43.32
65384;BME280;51986;52.788;41.368;2023-04-21T07:34:22;98993.69;;;12.34;43.19
65384;BME280;51986;52.788;41.368;2023-04-21T07:36:54;98983.13;;;12.34;43.79
65384;BME280;51986;52.788;41.368;2023-04-21T07:39:21;98985.13;;;12.10;43.36
65384;BME280;51986;52.788;41.368;2023-04-21T07:41:48;98996.97;;;12.22;43.93
65384;BME280;51986;52.788;41.368;2023-04-21T07:44:15;98992.44;;;12.22;43.28
65384;BME280;51986;52.788;41.368;2023-04-21T07:47:00;99014.66;;;12.25;44.02
65384;BME280;51986;52.788;41.368;2023-04-21T07:49:27;98998.56;;;11.99;43.72
65384;BME280;51986;52.788;41.368;2023-04-21T07:51:54;98986.63;;;12.11;44.30
65384;BME280;51986;52.788;41.368;2023-04-21T07:54:21;98981.25;;;12.15;43.80
65384;BME280;51986;52.788;41.368;2023-04-21T07:56:48;98994.38;;;12.02;44.80
65384;BME280;51986;52.788;41.368;2023-04-21T07:59:15;99005.69;;;12.02;44.93
65384;BME280;51986;52.788;41.368;2023-04-21T08:02:01;98991.50;;;12.13;43.67
65384;BME280;51986;52.788;41.368;2023-04-21T08:04:29;98968.41;;;11.97;44.96
65384;BME280;51986;52.788;41.368;2023-04-21T08:06:56;98973.16;;;11.85;45.42
65384;BME280;51986;52.788;41.368;2023-04-21T08:09:23;98970.59;;;11.82;44.79
65384;BME280;51986;52.788;41.368;2023-04-21T08:11:51;98962.25;;;12.20;44.05
65384;BME280;51986;52.788;41.368;2023-04-21T08:14:25;98977.75;;;12.01;44.54
65384;BME280;51986;52.788;41.368;2023-04-21T08:19:38;98963.56;;;12.12;45.19
65384;BME280;51986;52.788;41.368;2023-04-21T08:24:51;98972.47;;;11.81;44.59
65384;BME280;51986;52.788;41.368;2023-04-21T08:27:18;98961.25;;;12.14;44.07
65384;BME280;51986;52.788;41.368;2023-04-21T08:29:48;98959.25;;;12.01;44.72
65384;BME280;51986;52.788;41.368;2023-04-21T08:32:15;98961.88;;;12.21;43.75
65384;BME280;51986;52.788;41.368;2023-04-21T08:34:42;98982.69;;;11.99;44.30
65384;BME280;51986;52.788;41.368;2023-04-21T08:37:09;98961.34;;;11.90;44.05
65384;BME280;51986;52.788;41.368;2023-04-21T08:39:36;98947.97;;;11.57;44.48
65384;BME280;51986;52.788;41.368;2023-04-21T08:42:04;98940.34;;;11.63;44.52
65384;BME280;51986;52.788;41.368;2023-04-21T08:44:32;98950.31;;;11.75;43.97
65384;BME280;51986;52.788;41.368;2023-04-21T08:47:00;98946.84;;;11.58;45.24
65384;BME280;51986;52.788;41.368;2023-04-21T08:49:32;98941.25;;;11.53;44.98
65384;BME280;51986;52.788;41.368;2023-04-21T08:51:59;98965.84;;;11.30;45.14
65384;BME280;51986;52.788;41.368;2023-04-21T08:54:26;98951.66;;;11.64;45.20
65384;BME280;51986;52.788;41.368;2023-04-21T08:56:56;98947.84;;;11.65;44.98
65384;BME280;51986;52.788;41.368;2023-04-21T08:59:37;98947.16;;;11.41;46.20
65384;BME280;51986;52.788;41.368;2023-04-21T09:04:43;98931.13;;;11.51;46.36
65384;BME280;51986;52.788;41.368;2023-04-21T09:07:11;98922.25;;;11.42;47.07
65384;BME280;51986;52.788;41.368;2023-04-21T09:10:07;98923.66;;;11.66;46.85
65384;BME280;51986;52.788;41.368;2023-04-21T09:12:37;98922.28;;;11.38;47.15
65384;BME280;51986;52.788;41.368;2023-04-21T09:15:04;98914.63;;;11.24;48.02
65384;BME280;51986;52.788;41.368;2023-04-21T09:17:31;98936.22;;;11.19;47.64
65384;BME280;51986;52.788;41.368;2023-04-21T09:20:17;98925.44;;;11.09;48.36
65384;BME280;51986;52.788;41.368;2023-04-21T09:22:47;98906.56;;;11.11;48.69
65384;BME280;51986;52.788;41.368;2023-04-21T09:25:16;98904.56;;;10.95;47.32
65384;BME280;51986;52.788;41.368;2023-04-21T09:27:43;98891.56;;;10.85;48.10
65384;BME280;51986;52.788;41.368;2023-04-21T09:30:11;98897.88;;;11.34;47.53
65384;BME280;51986;52.788;41.368;2023-04-21T09:32:39;98889.00;;;11.44;46.64
65384;BME280;51986;52.788;41.368;2023-04-21T09:35:10;98860.06;;;11.77;46.09
65384;BME280;51986;52.788;41.368;2023-04-21T09:37:38;98883.09;;;11.96;45.94
65384;BME280;51986;52.788;41.368;2023-04-21T09:40:05;98856.19;;;11.62;45.68
65384;BME280;51986;52.788;41.368;2023-04-21T09:42:33;98850.53;;;11.63;46.50
65384;BME280;51986;52.788;41.368;2023-04-21T09:45:05;98877.06;;;11.56;46.33
65384;BME280;51986;52.788;41.368;2023-04-21T09:47:56;98866.69;;;11.65;46.71
65384;BME280;51986;52.788;41.368;2023-04-21T09:50:26;98852.56;;;11.55;46.71
65384;BME280;51986;52.788;41.368;2023-04-21T09:56:20;98862.03;;;11.53;46.09
65384;BME280;51986;52.788;41.368;2023-04-21T09:58:57;98867.78;;;11.28;47.29
65384;BME280;51986;52.788;41.368;2023-04-21T10:01:26;98866.84;;;11.58;46.59
65384;BME280;51986;52.788;41.368;2023-04-21T10:03:55;98853.16;;;11.23;46.52
65384;BME280;51986;52.788;41.368;2023-04-21T10:06:22;98846.78;;;11.60;46.27
65384;BME280;51986;52.788;41.368;2023-04-21T10:11:56;98865.09;;;11.51;45.97
65384;BME280;51986;52.788;41.368;2023-04-21T10:14:26;98843.16;;;11.54;45.90
65384;BME280;51986;52.788;41.368;2023-04-21T10:17:04;98827.44;;;11.47;46.38
65384;BME280;51986;52.788;41.368;2023-04-21T10:19:33;98837.13;;;11.90;46.24
65384;BME280;51986;52.788;41.368;2023-04-21T10:22:01;98854.03;;;11.76;47.02
65384;BME280;51986;52.788;41.368;2023-04-21T10:24:29;98843.91;;;11.91;46.57
65384;BME280;51986;52.788;41.368;2023-04-21T10:26:58;98857.66;;;12.02;46.82
65384;BME280;51986;52.788;41.368;2023-04-21T10:29:44;98813.59;;;11.59;46.66
65384;BME280;51986;52.788;41.368;2023-04-21T10:32:41;98834.88;;;11.72;46.85
65384;BME280;51986;52.788;41.368;2023-04-21T10:35:13;98848.00;;;11.76;46.47
65384;BME280;51986;52.788;41.368;2023-04-21T10:37:42;98859.31;;;12.13;46.42
65384;BME280;51986;52.788;41.368;2023-04-21T10:40:32;98838.31;;;12.05;45.95
65384;BME280;51986;52.788;41.368;2023-04-21T10:43:41;98849.81;;;12.31;44.82
65384;BME280;51986;52.788;41.368;2023-04-21T10:46:37;98848.91;;;12.22;45.29
65384;BME280;51986;52.788;41.368;2023-04-21T10:49:20;98841.78;;;12.19;44.77
65384;BME280;51986;52.788;41.368;2023-04-21T10:52:01;98845.50;;;12.05;45.10
65384;BME280;51986;52.788;41.368;2023-04-21T10:54:37;98811.38;;;12.27;43.72
65384;BME280;51986;52.788;41.368;2023-04-21T10:57:12;98826.56;;;12.55;43.44
65384;BME280;51986;52.788;41.368;2023-04-21T11:00:02;98839.06;;;13.00;43.16
65384;BME280;51986;52.788;41.368;2023-04-21T11:02:35;98822.94;;;12.49;43.29
65384;BME280;51986;52.788;41.368;2023-04-21T11:05:09;98852.69;;;12.37;42.99
65384;BME280;51986;52.788;41.368;2023-04-21T11:07:38;98821.28;;;12.55;43.50
65384;BME280;51986;52.788;41.368;2023-04-21T11:10:10;98817.56;;;12.82;43.08
65384;BME280;51986;52.788;41.368;2023-04-21T11:12:56;98815.25;;;12.39;42.99
65384;BME280;51986;52.788;41.368;2023-04-21T11:15:23;98796.19;;;11.98;44.89
65384;BME280;51986;52.788;41.368;2023-04-21T11:17:50;98817.91;;;12.39;44.47
65384;BME280;51986;52.788;41.368;2023-04-21T11:20:17;98796.44;;;12.04;44.41
65384;BME280;51986;52.788;41.368;2023-04-21T11:22:48;98806.91;;;11.91;44.36
65384;BME280;51986;52.788;41.368;2023-04-21T11:25:19;98781.47;;;11.97;45.33
65384;BME280;51986;52.788;41.368;2023-04-21T11:27:54;98798.06;;;11.81;45.98
65384;BME280;51986;52.788;41.368;2023-04-21T11:30:31;98802.13;;;12.02;43.97
65384;BME280;51986;52.788;41.368;2023-04-21T11:32:59;98790.09;;;12.01;44.05
65384;BME280;51986;52.788;41.368;2023-04-21T11:35:26;98782.38;;;11.74;44.40
65384;BME280;51986;52.788;41.368;2023-04-21T11:37:56;98775.78;;;11.46;44.48
65384;BME280;51986;52.788;41.368;2023-04-21T11:40:23;98808.16;;;11.67;44.38
65384;BME280;51986;52.788;41.368;2023-04-21T11:42:51;98776.94;;;11.62;44.96
65384;BME280;51986;52.788;41.368;2023-04-21T11:45:18;98765.38;;;11.92;44.47
65384;BME280;51986;52.788;41.368;2023-04-21T11:47:48;98759.44;;;11.51;45.66
65384;BME280;51986;52.788;41.368;2023-04-21T11:50:35;98768.06;;;11.72;44.69
65384;BME280;51986;52.788;41.368;2023-04-21T11:53:02;98769.03;;;11.62;45.00
65384;BME280;51986;52.788;41.368;2023-04-21T11:55:29;98748.91;;;11.68;44.77
65384;BME280;51986;52.788;41.368;2023-04-21T12:00:45;98726.41;;;11.43;45.80
65384;BME280;51986;52.788;41.368;2023-04-21T12:03:12;98742.41;;;11.72;45.82
65384;BME280;51986;52.788;41.368;2023-04-21T12:05:58;98751.44;;;11.71;45.74
65384;BME280;51986;52.788;41.368;2023-04-21T12:08:30;98768.94;;;11.65;45.84
65384;BME280;51986;52.788;41.368;2023-04-21T12:10:57;98744.84;;;11.63;46.63
65384;BME280;51986;52.788;41.368;2023-04-21T12:13:43;98744.75;;;11.50;46.59
65384;BME280;51986;52.788;41.368;2023-04-21T12:16:11;98719.63;;;11.42;46.00
65384;BME280;51986;52.788;41.368;2023-04-21T12:18:38;98718.34;;;11.67;45.75
65384;BME280;51986;52.788;41.368;2023-04-21T12:21:06;98704.63;;;11.39;46.54
65384;BME280;51986;52.788;41.368;2023-04-21T12:23:32;98713.19;;;11.27;47.25
65384;BME280;51986;52.788;41.368;2023-04-21T12:28:45;98712.66;;;11.16;47.06
65384;BME280;51986;52.788;41.368;2023-04-21T12:31:12;98701.72;;;10.97;47.49
65384;BME280;51986;52.788;41.368;2023-04-21T12:33:39;98687.66;;;10.84;47.37
65384;BME280;51986;52.788;41.368;2023-04-21T12:36:07;98670.84;;;10.58;47.33
65384;BME280;51986;52.788;41.368;2023-04-21T12:38:34;98676.69;;;10.66;46.88
65384;BME280;51986;52.788;41.368;2023-04-21T12:41:01;98684.28;;;10.83;47.56
65384;BME280;51986;52.788;41.368;2023-04-21T12:43:31;98687.81;;;10.77;48.01
65384;BME280;51986;52.788;41.368;2023-04-21T12:45:58;98695.03;;;10.73;48.56
65384;BME280;51986;52.788;41.368;2023-04-21T12:48:44;98682.44;;;10.80;47.55
65384;BME280;51986;52.788;41.368;2023-04-21T12:51:11;98664.88;;;10.74;47.32
65384;BME280;51986;52.788;41.368;2023-04-21T12:53:38;98671.78;;;10.68;47.40
65384;BME280;51986;52.788;41.368;2023-04-21T12:56:05;98650.53;;;10.35;47.96
65384;BME280;51986;52.788;41.368;2023-04-21T12:58:32;98693.69;;;10.45;48.07
65384;BME280;51986;52.788;41.368;2023-04-21T13:00:59;98680.50;;;10.65;48.03
65384;BME280;51986;52.788;41.368;2023-04-21T13:06:12;98669.94;;;10.45;47.91
65384;BME280;51986;52.788;41.368;2023-04-21T13:08:39;98691.25;;;10.54;47.95
65384;BME280;51986;52.788;41.368;2023-04-21T13:14:29;98707.50;;;10.72;47.74
65384;BME280;51986;52.788;41.368;2023-04-21T13:16:56;98699.16;;;10.34;47.63
65384;BME280;51986;52.788;41.368;2023-04-21T13:19:24;98703.00;;;10.49;48.12
65384;BME280;51986;52.788;41.368;2023-04-21T13:21:51;98699.09;;;10.57;48.22
65384;BME280;51986;52.788;41.368;2023-04-21T13:24:20;98669.88;;;10.05;49.41
65384;BME280;51986;52.788;41.368;2023-04-21T13:26:47;98626.16;;;10.07;48.41
65384;BME280;51986;52.788;41.368;2023-04-21T13:29:14;98680.34;;;10.32;48.75
65384;BME280;51986;52.788;41.368;2023-04-21T13:31:44;98668.22;;;10.15;48.89
65384;BME280;51986;52.788;41.368;2023-04-21T13:34:12;98674.69;;;10.34;49.67
65384;BME280;51986;52.788;41.368;2023-04-21T13:36:41;98654.91;;;9.98;50.26
65384;BME280;51986;52.788;41.368;2023-04-21T13:39:09;98655.94;;;10.04;49.81